Skip Navigation Links
NOAA logo - Click to go to the NOAA homepage
NOAA's National Weather Service
Alaska Aviation Weather Unit
  NWS logo - Click to go to the NWS homepage
Left Navbar Graphic     19 AKDT = 03 GMT

   
NOAA is celebrating 200 years of science, service, and stewardship. Visit the NOAA 200th celebration Web site to learn more.
USA.gov is the U.S. Government's official Web portal to all Federal, state and local government Web resources and services.
Facebook
NWS on Facebook

Important Change Regarding the AAWU Web Presence

 

Over the last several months, the AAWU has been working to navigate its webpages to a nationally supported server. Security, as well as other needs, have necessitated the change.  In the process, we have made an effort to enhance the functionality of our website, as well as some of our products. As of June 20, 2017, aawu.arh.noaa.gov will be discontinued. The new AAWU web address is weather.gov/aawu. It is now live and will run in-parallel with the old site until it is discontinued. Please send any feedback or questions regarding the new webpages to nws.ar.aawu.webauthors@noaa.gov.  Thank you for your patience during this time of transition.
AAWU Home :: Display TAF Add Bookmark
SPECI PAFM 242133Z AUTO 09008G18KT 10SM -RA OVC030 07/04 A2965 RMK AO2
     P0001=

METAR PAFM 242156Z AUTO 12008KT 10SM -RA OVC032 07/04 A2964 RMK AO2
 SLP051 P0002 T00720044=

METAR PAFM 242256Z AUTO 13008KT 9SM -RA OVC029 07/06 A2963 RMK AO2
     SLP048 P0006 T00670056=

METAR PAFM 242356Z AUTO 12007KT 10SM -RA SCT019 OVC026 07/06 A2962
 RMK AO2 SLP044 P0005 60018 T00720056 10072 20061 56016=

SPECI PAFM 250023Z AUTO 11007KT 10SM -RA SCT009 SCT013 OVC026 07/06
     A2962 RMK AO2 P0001=

SPECI PAFM 250030Z AUTO 12007KT 10SM -RA BKN011 OVC026 07/06 A2962 RMK
     AO2 P0002=

SPECI PAFM 250040Z AUTO 13007KT 10SM -RA BKN009 BKN014 OVC028 07/06
     A2962 RMK AO2 CIG 007V012 P0003=

SPECI PAFM 250051Z AUTO 14010KT 10SM -RA BKN011 OVC028 07/06 A2962 RMK
     AO2 P0003=

METAR PAFM 250056Z AUTO 13009KT 10SM -RA SCT011 OVC028 07/06 A2962
 RMK AO2 SLP043 P0004 T00720056=

SPECI PAFM 250106Z AUTO 14009KT 10SM -RA BKN013 OVC024 07/06 A2961
 RMK AO2 P0000=

SPECI PAFM 250117Z AUTO 11010G14KT 10SM -RA FEW009 BKN022 OVC027 07/06
     A2961 RMK AO2 P0000=

SPECI PAFM 250141Z AUTO 12008KT 10SM -RA FEW020 OVC035 07/06 A2961 RMK
     AO2 P0001=

METAR PAFM 250156Z AUTO 11007KT 10SM -RA OVC034 07/06 A2961 RMK AO2
     SLP040 P0002 T00720061=

METAR PAFM 250256Z AUTO 12007KT 10SM -RA FEW026 OVC030 07/06 A2961 RMK
     AO2 SLP039 P0003 60009 T00670056 58003=


NOAA's National Weather Service
Alaska Aviation Weather Unit
6930 Sand Lake Road
Anchorage, AK 99502-1845
Disclaimer
Credits
Glossary
Privacy Policy
About Us
Career Opportunities
Contact AAWU Internet Services Site last modified: April, 17th 2012